createdAt,value
2023-03-07T00:03:23.201Z,36.59531772575251
2023-03-07T00:10:09.604Z,35.79598662207358
2023-03-07T00:25:58.787Z,35.070234113712374
2023-03-07T00:32:19.228Z,34.4314381270903
2023-03-07T00:38:38.855Z,33.31438127090301
2023-03-07T00:44:57.443Z,32.31103678929766
2023-03-07T00:51:16.311Z,31.96989966555184
2023-03-07T01:00:07.462Z,30.270903010033443
2023-03-07T01:06:25.853Z,30.03344481605351
2023-03-07T01:12:44.134Z,29.57190635451505
2023-03-07T01:19:05.874Z,28.812709030100333
2023-03-07T01:33:08.718Z,27.120401337792643
2023-03-07T01:45:08.748Z,24.588628762541806
2023-03-07T01:51:45.134Z,22.224080267558527
2023-03-07T02:07:20.797Z,17.40468227424749
2023-03-07T02:13:38.912Z,16.2809364548495
2023-03-07T02:21:02.627Z,16.02006688963211
2023-03-07T02:27:20.663Z,15.267558528428093
2023-03-07T02:33:38.665Z,13.608695652173912
2023-03-07T02:39:56.718Z,12.876254180602007
2023-03-07T02:46:14.842Z,11.73913043478261
2023-03-07T02:52:32.931Z,11.501672240802675
2023-03-07T03:03:04.950Z,9.91638795986622
2023-03-07T03:15:04.488Z,7.548494983277592
2023-03-07T03:21:22.701Z,5.993311036789297
2023-03-07T03:27:40.827Z,4.551839464882943
2023-03-07T03:33:59.505Z,3.9933110367892977
2023-03-07T03:40:17.885Z,4.053511705685619
2023-03-07T03:52:08.661Z,3.528428093645485
2023-03-07T03:58:26.983Z,3.591973244147157
2023-03-07T04:04:45.270Z,3.367892976588629
2023-03-07T04:11:03.791Z,2.983277591973244
2023-03-07T04:17:22.704Z,2.237458193979933
2023-03-07T04:23:41.662Z,2.367892976588629
2023-03-07T04:37:12.600Z,1.1672240802675586
2023-03-07T04:43:30.951Z,1.0568561872909699
2023-03-07T04:49:49.289Z,1.354515050167224
2023-03-07T04:56:08.116Z,1.1638795986622072
2023-03-07T05:02:27.149Z,1.3110367892976589
2023-03-07T05:12:50.284Z,0.882943143812709
2023-03-07T05:19:08.961Z,0.8862876254180602
2023-03-07T05:25:28.662Z,0.9498327759197325
2023-03-07T05:31:48.021Z,0.30434782608695654
2023-03-07T05:41:56.093Z,0.1705685618729097
2023-03-07T05:48:15.011Z,0.3979933110367893
2023-03-07T05:54:33.101Z,0.13377926421404682
2023-03-07T06:01:51.210Z,0.06688963210702341
2023-03-07T06:13:03.211Z,0.0
2023-03-07T06:19:23.127Z,0.056856187290969896
2023-03-07T06:25:49.338Z,0.10702341137123746
2023-03-07T06:32:14.575Z,0.04013377926421405
2023-03-07T06:44:25.141Z,0.05351170568561873
2023-03-07T06:50:46.449Z,0.0
2023-03-07T06:57:07.531Z,0.030100334448160536
2023-03-07T07:03:30.281Z,0.016722408026755852
2023-03-07T07:09:52.092Z,0.04013377926421405
2023-03-07T07:16:14.699Z,0.06020066889632107
2023-03-07T07:22:36.031Z,0.046822742474916385
2023-03-07T07:33:02.802Z,0.0
2023-03-07T07:39:24.204Z,0.04013377926421405
2023-03-07T07:45:45.090Z,0.026755852842809364
2023-03-07T07:52:06.576Z,0.04013377926421405
2023-03-07T07:58:27.699Z,0.1605351170568562
2023-03-07T08:06:43.566Z,0.030100334448160536
2023-03-07T08:13:05.213Z,0.18394648829431437
2023-03-07T08:19:26.720Z,0.06020066889632107
2023-03-07T08:25:48.137Z,0.04013377926421405
2023-03-07T08:32:11.884Z,0.06354515050167224
2023-03-07T08:38:34.759Z,0.033444816053511704
2023-03-07T08:45:23.006Z,0.09698996655518395
2023-03-07T08:51:44.624Z,0.056856187290969896
2023-03-07T08:58:06.305Z,0.08361204013377926
2023-03-07T09:04:27.106Z,0.08695652173913043
2023-03-07T09:10:48.253Z,0.046822742474916385
2023-03-07T09:22:30.014Z,0.0
2023-03-07T09:28:51.486Z,0.030100334448160536
2023-03-07T09:35:13.835Z,0.006688963210702341
2023-03-07T09:41:35.261Z,0.13043478260869565
2023-03-07T09:47:56.326Z,0.03678929765886288
2023-03-07T09:54:18.215Z,0.06688963210702341
2023-03-07T10:00:39.490Z,0.09698996655518395
2023-03-07T10:07:02.277Z,0.010033444816053512
2023-03-07T10:13:23.439Z,0.06354515050167224
2023-03-07T10:19:44.510Z,0.046822742474916385
2023-03-07T10:26:05.751Z,0.033444816053511704
2023-03-07T10:32:26.841Z,0.0
2023-03-07T10:38:48.409Z,0.05351170568561873
2023-03-07T10:45:11.143Z,0.07023411371237458
2023-03-07T10:51:53.174Z,0.08361204013377926
2023-03-07T10:58:15.026Z,0.11371237458193979
2023-03-07T11:07:23.070Z,0.023411371237458192
2023-03-07T11:13:45.984Z,0.06688963210702341
2023-03-07T11:24:13.506Z,0.10702341137123746
2023-03-07T11:30:35.283Z,0.745819397993311
2023-03-07T11:38:54.696Z,4.311036789297659
2023-03-07T11:45:16.904Z,1.7424749163879598
2023-03-07T11:51:38.539Z,0.6555183946488294
2023-03-07T11:58:00.831Z,0.41471571906354515
2023-03-07T12:04:23.052Z,0.11705685618729098
2023-03-07T12:18:22.299Z,0.15719063545150502
2023-03-07T12:24:43.648Z,0.1605351170568562
2023-03-07T12:37:02.056Z,0.36454849498327757
2023-03-07T12:43:23.897Z,0.42474916387959866
2023-03-07T12:49:50.132Z,0.15384615384615385
2023-03-07T12:56:11.842Z,0.35785953177257523
2023-03-07T13:05:46.250Z,0.2809364548494983
2023-03-07T13:12:08.879Z,0.2140468227424749
2023-03-07T13:18:30.742Z,0.03678929765886288
2023-03-07T13:24:53.295Z,0.006688963210702341
2023-03-07T13:35:07.410Z,0.016722408026755852
2023-03-07T13:41:28.406Z,0.04013377926421405
2023-03-07T13:48:04.637Z,0.0802675585284281
2023-03-07T13:54:26.506Z,0.2040133779264214
2023-03-07T14:00:47.884Z,0.023411371237458192
2023-03-07T14:07:10.066Z,0.07692307692307693
2023-03-07T14:13:31.876Z,0.046822742474916385
2023-03-07T14:20:32.756Z,0.07692307692307693
2023-03-07T14:26:54.291Z,0.0802675585284281
2023-03-07T14:33:16.573Z,0.23745819397993312
2023-03-07T14:39:54.654Z,0.06688963210702341
2023-03-07T14:46:16.392Z,0.07692307692307693
2023-03-07T14:52:38.199Z,0.033444816053511704
2023-03-07T14:58:59.415Z,0.006688963210702341
2023-03-07T15:05:21.975Z,0.03678929765886288
2023-03-07T15:11:42.236Z,0.030100334448160536
2023-03-07T15:18:03.849Z,0.0
2023-03-07T15:24:25.107Z,0.12040133779264214
2023-03-07T15:32:43.420Z,0.06020066889632107
2023-03-07T15:42:54.962Z,1.7525083612040133
2023-03-07T15:49:16.509Z,1.0167224080267558
2023-03-07T15:55:38.051Z,0.08361204013377926
2023-03-07T16:01:59.375Z,0.016722408026755852
2023-03-07T16:08:21.154Z,0.016722408026755852
2023-03-07T16:14:42.879Z,0.0033444816053511705
2023-03-07T16:21:04.422Z,0.013377926421404682
2023-03-07T16:27:35.737Z,0.006688963210702341
2023-03-07T16:34:38.125Z,0.22408026755852842
2023-03-07T16:40:59.434Z,0.19732441471571907
2023-03-07T16:50:58.097Z,0.7224080267558528
2023-03-07T17:08:36.539Z,0.6354515050167224
2023-03-07T17:14:55.050Z,0.7190635451505016
2023-03-07T17:24:26.470Z,2.3244147157190636
2023-03-07T17:30:45.230Z,2.9866220735785953
2023-03-07T17:37:04.251Z,1.0903010033444815
2023-03-07T17:43:27.422Z,1.1538461538461537
2023-03-07T17:49:46.912Z,1.3779264214046822
2023-03-07T17:56:06.258Z,2.0434782608695654
2023-03-07T18:02:26.579Z,2.2073578595317724
2023-03-07T18:08:45.361Z,3.709030100334448
2023-03-07T18:15:04.699Z,2.7324414715719065
2023-03-07T18:23:01.734Z,4.197324414715719
2023-03-07T18:29:20.516Z,5.59866220735786
2023-03-07T18:40:43.405Z,2.5852842809364547
2023-03-07T18:47:01.889Z,3.6354515050167224
2023-03-07T18:55:41.054Z,3.6220735785953178
2023-03-07T19:07:47.212Z,4.538461538461538
2023-03-07T19:14:08.173Z,3.4816053511705687
2023-03-07T19:20:28.101Z,3.301003344481605
2023-03-07T19:27:56.631Z,2.789297658862876
2023-03-07T19:34:16.541Z,3.0234113712374584
2023-03-07T19:40:38.483Z,3.4648829431438126
2023-03-07T19:47:03.034Z,3.2642140468227425
2023-03-07T19:54:58.264Z,3.0735785953177257
2023-03-07T20:01:18.234Z,2.6421404682274248
2023-03-07T20:07:41.274Z,2.5451505016722407
2023-03-07T20:14:07.619Z,2.260869565217391
2023-03-07T20:20:40.445Z,2.819397993311037
2023-03-07T20:27:13.954Z,2.5250836120401337
2023-03-07T20:33:48.839Z,2.5451505016722407
2023-03-07T20:40:42.511Z,2.130434782608696
2023-03-07T20:47:34.276Z,2.5852842809364547
2023-03-07T20:53:54.544Z,3.311036789297659
2023-03-07T21:00:17.286Z,2.4949832775919734
2023-03-07T21:06:40.155Z,3.0100334448160537
2023-03-07T21:13:00.803Z,3.080267558528428
2023-03-07T21:19:21.499Z,2.6220735785953178
2023-03-07T21:25:41.318Z,3.237458193979933
2023-03-07T21:32:02.842Z,4.1404682274247495
2023-03-07T21:38:25.488Z,4.749163879598663
2023-03-07T21:52:12.858Z,5.505016722408027
2023-03-07T21:58:33.774Z,3.739130434782609
2023-03-07T22:04:54.886Z,3.508361204013378
2023-03-07T22:11:15.561Z,3.150501672240803
2023-03-07T22:17:35.246Z,2.8662207357859533
2023-03-07T22:28:03.387Z,2.9732441471571907
2023-03-07T22:37:42.625Z,3.0836120401337794
2023-03-07T22:44:03.215Z,3.4816053511705687
2023-03-07T22:50:24.258Z,3.6722408026755855
2023-03-07T23:01:45.324Z,3.0234113712374584
2023-03-07T23:10:02.377Z,2.939799331103679
2023-03-07T23:16:21.926Z,2.963210702341137
2023-03-07T23:22:40.711Z,2.698996655518395
2023-03-07T23:28:59.393Z,2.765886287625418
2023-03-07T23:35:18.543Z,2.25752508361204
2023-03-07T23:41:39.615Z,2.408026755852843
2023-03-07T23:48:00.727Z,2.0133779264214047
2023-03-07T23:54:19.221Z,2.705685618729097
